Terminal Aerodrome Forecast
Issued by NWS

Home | Current Version | Previous Version | Text Only | Print | Product List | Glossary On
Versions: 1 2 3 4 5 6 7 8 9 10 11 12 13 14 15 16 17
000
FTUS46 KMTR 181700
TAFOAK
TAF
KOAK 181738Z 1818/1924 13007KT P6SM BKN030 OVC035
     FM190300 14007KT P6SM OVC030
     FM190900 15008KT P6SM -RA OVC020
     FM192200 19007KT P6SM -SHRA BKN025=

USA.gov is the U.S. government's official web portal to all federal, state and local government web resources and services.